sensor_id;sensor_type;location;lat;lon;timestamp;pressure;altitude;pressure_sealevel;temperature;humidity
56632;BME280;42503;39.928;-75.152;2022-12-18T00:05:52;100954.28;;;21.60;35.98
56632;BME280;42503;39.928;-75.152;2022-12-18T00:15:53;100958.47;;;21.52;35.90
56632;BME280;42503;39.928;-75.152;2022-12-18T00:25:59;100972.69;;;21.51;35.72
56632;BME280;42503;39.928;-75.152;2022-12-18T00:36:06;100984.41;;;21.48;35.83
56632;BME280;42503;39.928;-75.152;2022-12-18T00:46:07;100983.84;;;21.46;35.13
56632;BME280;42503;39.928;-75.152;2022-12-18T00:56:08;100989.19;;;21.32;35.61
56632;BME280;42503;39.928;-75.152;2022-12-18T01:06:11;101038.72;;;21.40;35.33
56632;BME280;42503;39.928;-75.152;2022-12-18T01:16:14;100998.91;;;21.24;35.42
56632;BME280;42503;39.928;-75.152;2022-12-18T01:26:16;101025.06;;;21.39;35.48
56632;BME280;42503;39.928;-75.152;2022-12-18T01:36:20;101016.47;;;21.40;35.50
56632;BME280;42503;39.928;-75.152;2022-12-18T01:46:23;101015.63;;;21.40;35.52
56632;BME280;42503;39.928;-75.152;2022-12-18T01:56:25;101025.06;;;21.49;35.69
56632;BME280;42503;39.928;-75.152;2022-12-18T02:06:34;101028.94;;;21.58;35.94
56632;BME280;42503;39.928;-75.152;2022-12-18T02:27:04;101051.44;;;21.77;35.76
56632;BME280;42503;39.928;-75.152;2022-12-18T02:37:11;101058.63;;;21.83;35.48
56632;BME280;42503;39.928;-75.152;2022-12-18T02:47:16;101047.53;;;21.73;35.00
56632;BME280;42503;39.928;-75.152;2022-12-18T02:57:34;101077.81;;;21.90;35.51
56632;BME280;42503;39.928;-75.152;2022-12-18T03:07:49;101064.72;;;21.95;35.13
56632;BME280;42503;39.928;-75.152;2022-12-18T03:17:57;101053.81;;;21.99;35.11
56632;BME280;42503;39.928;-75.152;2022-12-18T03:28:02;101047.19;;;21.90;34.69
56632;BME280;42503;39.928;-75.152;2022-12-18T03:38:05;101048.25;;;22.04;35.23
56632;BME280;42503;39.928;-75.152;2022-12-18T03:48:28;101072.78;;;22.02;35.10
56632;BME280;42503;39.928;-75.152;2022-12-18T03:58:31;101091.16;;;22.03;35.18
56632;BME280;42503;39.928;-75.152;2022-12-18T04:08:34;101077.25;;;21.98;35.09
56632;BME280;42503;39.928;-75.152;2022-12-18T04:18:38;101012.22;;;21.58;34.83
56632;BME280;42503;39.928;-75.152;2022-12-18T04:28:40;101080.06;;;21.93;34.93
56632;BME280;42503;39.928;-75.152;2022-12-18T04:38:41;101078.13;;;21.88;35.08
56632;BME280;42503;39.928;-75.152;2022-12-18T04:48:45;101080.38;;;21.86;35.04
56632;BME280;42503;39.928;-75.152;2022-12-18T04:58:46;101087.88;;;21.80;35.15
56632;BME280;42503;39.928;-75.152;2022-12-18T05:08:48;101096.81;;;21.77;34.71
56632;BME280;42503;39.928;-75.152;2022-12-18T05:18:49;101098.50;;;21.73;34.79
56632;BME280;42503;39.928;-75.152;2022-12-18T05:28:51;101102.97;;;21.69;34.52
56632;BME280;42503;39.928;-75.152;2022-12-18T05:38:52;101064.53;;;21.66;34.44
56632;BME280;42503;39.928;-75.152;2022-12-18T05:48:59;101060.94;;;21.61;34.13
56632;BME280;42503;39.928;-75.152;2022-12-18T05:59:02;101040.63;;;21.55;34.25
56632;BME280;42503;39.928;-75.152;2022-12-18T06:09:03;101037.03;;;21.49;34.10
56632;BME280;42503;39.928;-75.152;2022-12-18T06:19:14;101059.88;;;21.46;33.82
56632;BME280;42503;39.928;-75.152;2022-12-18T06:29:16;101086.03;;;21.45;34.16
56632;BME280;42503;39.928;-75.152;2022-12-18T06:39:17;101077.94;;;21.28;34.25
56632;BME280;42503;39.928;-75.152;2022-12-18T06:49:18;101112.50;;;21.38;34.13
56632;BME280;42503;39.928;-75.152;2022-12-18T06:59:20;101138.38;;;21.33;34.08
56632;BME280;42503;39.928;-75.152;2022-12-18T07:09:21;101153.13;;;21.34;34.04
56632;BME280;42503;39.928;-75.152;2022-12-18T07:19:23;101169.28;;;21.31;34.12
56632;BME280;42503;39.928;-75.152;2022-12-18T07:29:24;101162.28;;;21.19;33.90
56632;BME280;42503;39.928;-75.152;2022-12-18T07:39:25;101168.13;;;21.27;33.87
56632;BME280;42503;39.928;-75.152;2022-12-18T07:49:33;101150.59;;;21.27;34.09
56632;BME280;42503;39.928;-75.152;2022-12-18T07:59:34;101140.03;;;21.24;33.85
56632;BME280;42503;39.928;-75.152;2022-12-18T08:09:36;101122.22;;;21.20;33.71
56632;BME280;42503;39.928;-75.152;2022-12-18T08:19:37;101124.16;;;21.19;33.70
56632;BME280;42503;39.928;-75.152;2022-12-18T08:29:39;101125.28;;;21.23;33.68
56632;BME280;42503;39.928;-75.152;2022-12-18T08:39:40;101114.69;;;21.20;33.50
56632;BME280;42503;39.928;-75.152;2022-12-18T08:49:41;101109.13;;;21.10;33.51
56632;BME280;42503;39.928;-75.152;2022-12-18T08:59:45;101130.84;;;21.18;33.57
56632;BME280;42503;39.928;-75.152;2022-12-18T09:09:47;101126.94;;;21.19;33.73
56632;BME280;42503;39.928;-75.152;2022-12-18T09:19:48;101132.50;;;21.19;33.33
56632;BME280;42503;39.928;-75.152;2022-12-18T09:29:55;101145.88;;;21.17;33.41
56632;BME280;42503;39.928;-75.152;2022-12-18T09:39:59;101146.72;;;21.18;33.79
56632;BME280;42503;39.928;-75.152;2022-12-18T09:50:27;101087.13;;;20.78;33.65
56632;BME280;42503;39.928;-75.152;2022-12-18T10:00:27;101138.06;;;21.14;33.56
56632;BME280;42503;39.928;-75.152;2022-12-18T10:10:49;101150.88;;;21.10;33.79
56632;BME280;42503;39.928;-75.152;2022-12-18T10:20:56;101134.47;;;21.14;33.67
56632;BME280;42503;39.928;-75.152;2022-12-18T10:31:01;101138.06;;;21.09;33.46
56632;BME280;42503;39.928;-75.152;2022-12-18T10:51:07;101151.97;;;21.09;33.70
56632;BME280;42503;39.928;-75.152;2022-12-18T11:11:21;101155.03;;;21.02;33.73
56632;BME280;42503;39.928;-75.152;2022-12-18T11:21:23;101163.13;;;21.04;33.24
56632;BME280;42503;39.928;-75.152;2022-12-18T11:31:26;101173.41;;;21.03;33.27
56632;BME280;42503;39.928;-75.152;2022-12-18T11:41:41;101171.47;;;20.99;33.32
56632;BME280;42503;39.928;-75.152;2022-12-18T11:52:22;101173.13;;;20.95;33.54
56632;BME280;42503;39.928;-75.152;2022-12-18T12:02:47;101176.44;;;20.92;33.31
56632;BME280;42503;39.928;-75.152;2022-12-18T12:33:40;101205.91;;;20.88;33.41
56632;BME280;42503;39.928;-75.152;2022-12-18T12:43:47;101210.34;;;20.78;33.19
56632;BME280;42503;39.928;-75.152;2022-12-18T12:53:51;101234.25;;;20.85;33.65
56632;BME280;42503;39.928;-75.152;2022-12-18T13:04:21;101241.50;;;20.80;33.52
56632;BME280;42503;39.928;-75.152;2022-12-18T13:24:33;101244.28;;;20.80;33.55
56632;BME280;42503;39.928;-75.152;2022-12-18T13:34:37;101250.09;;;20.79;33.53
56632;BME280;42503;39.928;-75.152;2022-12-18T13:44:40;101254.00;;;20.78;33.02
56632;BME280;42503;39.928;-75.152;2022-12-18T13:54:45;101267.91;;;20.78;33.23
56632;BME280;42503;39.928;-75.152;2022-12-18T14:04:49;101270.66;;;20.68;32.99
56632;BME280;42503;39.928;-75.152;2022-12-18T14:14:51;101297.69;;;20.83;32.91
56632;BME280;42503;39.928;-75.152;2022-12-18T14:25:17;101297.13;;;20.80;33.57
56632;BME280;42503;39.928;-75.152;2022-12-18T14:35:18;101319.41;;;20.86;33.18
56632;BME280;42503;39.928;-75.152;2022-12-18T14:45:40;101297.09;;;20.75;33.28
56632;BME280;42503;39.928;-75.152;2022-12-18T15:06:29;101335.59;;;20.94;34.23
56632;BME280;42503;39.928;-75.152;2022-12-18T15:16:31;101352.31;;;21.04;34.18
56632;BME280;42503;39.928;-75.152;2022-12-18T15:26:36;101365.66;;;21.07;33.97
56632;BME280;42503;39.928;-75.152;2022-12-18T15:36:47;101362.34;;;21.10;33.92
56632;BME280;42503;39.928;-75.152;2022-12-18T15:46:49;101351.22;;;21.10;34.02
56632;BME280;42503;39.928;-75.152;2022-12-18T15:56:50;101340.69;;;21.17;34.09
56632;BME280;42503;39.928;-75.152;2022-12-18T16:07:12;101325.63;;;21.08;33.96
56632;BME280;42503;39.928;-75.152;2022-12-18T16:17:14;101312.53;;;21.09;34.05
56632;BME280;42503;39.928;-75.152;2022-12-18T16:27:15;101318.69;;;21.21;34.16
56632;BME280;42503;39.928;-75.152;2022-12-18T16:37:18;101326.22;;;21.25;34.06
56632;BME280;42503;39.928;-75.152;2022-12-18T16:47:19;101310.91;;;21.23;34.47
56632;BME280;42503;39.928;-75.152;2022-12-18T16:57:21;101301.97;;;21.21;34.19
56632;BME280;42503;39.928;-75.152;2022-12-18T17:07:26;101325.72;;;21.39;34.22
56632;BME280;42503;39.928;-75.152;2022-12-18T17:17:28;101311.25;;;21.31;33.67
56632;BME280;42503;39.928;-75.152;2022-12-18T17:27:29;101324.06;;;21.48;33.79
56632;BME280;42503;39.928;-75.152;2022-12-18T17:37:31;101322.69;;;21.50;34.09
56632;BME280;42503;39.928;-75.152;2022-12-18T17:47:35;101311.56;;;21.55;34.12
56632;BME280;42503;39.928;-75.152;2022-12-18T17:57:36;101325.78;;;21.59;33.90
56632;BME280;42503;39.928;-75.152;2022-12-18T18:07:38;101321.88;;;21.60;34.11
56632;BME280;42503;39.928;-75.152;2022-12-18T18:17:39;101324.38;;;21.62;33.77
56632;BME280;42503;39.928;-75.152;2022-12-18T18:27:41;101326.91;;;21.63;33.73
56632;BME280;42503;39.928;-75.152;2022-12-18T18:37:45;101319.09;;;21.65;33.96
56632;BME280;42503;39.928;-75.152;2022-12-18T18:47:51;101336.09;;;21.69;33.78
56632;BME280;42503;39.928;-75.152;2022-12-18T18:57:55;101336.38;;;21.67;33.60
56632;BME280;42503;39.928;-75.152;2022-12-18T19:07:56;101338.88;;;21.59;33.57
56632;BME280;42503;39.928;-75.152;2022-12-18T19:17:58;101365.63;;;21.70;33.11
56632;BME280;42503;39.928;-75.152;2022-12-18T19:27:59;101361.44;;;21.67;33.03
56632;BME280;42503;39.928;-75.152;2022-12-18T19:38:01;101380.66;;;21.69;33.29
56632;BME280;42503;39.928;-75.152;2022-12-18T19:48:03;101394.31;;;21.70;34.00
56632;BME280;42503;39.928;-75.152;2022-12-18T19:58:04;101389.56;;;21.71;33.10
56632;BME280;42503;39.928;-75.152;2022-12-18T20:08:05;101411.31;;;21.74;33.11
56632;BME280;42503;39.928;-75.152;2022-12-18T20:18:10;101422.22;;;21.86;33.42
56632;BME280;42503;39.928;-75.152;2022-12-18T20:28:12;101442.25;;;21.93;33.06
56632;BME280;42503;39.928;-75.152;2022-12-18T20:38:13;101463.44;;;21.99;33.07
56632;BME280;42503;39.928;-75.152;2022-12-18T20:48:14;101482.72;;;22.05;33.28
56632;BME280;42503;39.928;-75.152;2022-12-18T20:58:16;101486.59;;;21.99;32.96
56632;BME280;42503;39.928;-75.152;2022-12-18T21:08:17;101501.38;;;22.10;33.05
56632;BME280;42503;39.928;-75.152;2022-12-18T21:18:18;101528.75;;;22.18;32.72
56632;BME280;42503;39.928;-75.152;2022-12-18T21:28:20;101553.84;;;22.23;33.22
56632;BME280;42503;39.928;-75.152;2022-12-18T21:38:21;101559.72;;;22.27;32.65
56632;BME280;42503;39.928;-75.152;2022-12-18T21:48:25;101586.19;;;22.29;32.93
56632;BME280;42503;39.928;-75.152;2022-12-18T21:58:30;101594.03;;;22.27;32.64
56632;BME280;42503;39.928;-75.152;2022-12-18T22:08:31;101602.09;;;22.29;34.60
56632;BME280;42503;39.928;-75.152;2022-12-18T22:18:32;101614.38;;;22.33;34.51
56632;BME280;42503;39.928;-75.152;2022-12-18T22:28:34;101645.34;;;22.31;34.66
56632;BME280;42503;39.928;-75.152;2022-12-18T22:38:54;101662.06;;;22.31;34.32
56632;BME280;42503;39.928;-75.152;2022-12-18T22:48:55;101682.13;;;22.28;34.28
56632;BME280;42503;39.928;-75.152;2022-12-18T22:58:59;101697.44;;;22.26;33.95
56632;BME280;42503;39.928;-75.152;2022-12-18T23:09:03;101708.31;;;22.22;33.75
56632;BME280;42503;39.928;-75.152;2022-12-18T23:19:05;101726.09;;;22.16;33.84
56632;BME280;42503;39.928;-75.152;2022-12-18T23:29:06;101747.25;;;22.12;33.71
56632;BME280;42503;39.928;-75.152;2022-12-18T23:39:10;101774.81;;;22.08;33.78
56632;BME280;42503;39.928;-75.152;2022-12-18T23:49:12;101777.56;;;22.03;33.91
56632;BME280;42503;39.928;-75.152;2022-12-18T23:59:13;101781.16;;;21.99;33.86
